Crystal Falls, MI

3:46 PM CST on March 02, 2015 (GMT -0600)
Sawyer International | Change Station
CLOSE
Current Station
Airport
Location: Gwinn,
Elevation: 1220 ft
Nearby Weather Stations
Active Advisory: Winter Weather Advisory

Elev 1220 ft 46.34 °N, 87.40 °W | Updated 59 minutes ago

Clear
Clear
27 °F
Feels Like 27 °F
N
0
Wind Variable Wind from North

Today
High -- | Low -- °F
--% Chance of Precip.
Yesterday
High -- | Low -- °F
Precip. -- in
6:30 AM 5:40 PM
Waxing Gibbous, 93% visible
Pressure 30.29 in
Visibility 10.0 miles
Clouds Clear
Dew Point 0 °F
Humidity 31%
Rainfall 0.00 in
Snow Depth Not available.
UV 2 out of 12
Pollen .30 out of 12
Air Quality Not available.
Flu Activity Not available.
METAR KSAW 022047Z 00000KT 10SM SKC M03/M18 A3029

More Conditions Fewer Conditions

Pressure 30.29 in
Visibility 10.0 miles
Clouds Clear
Dew Point 0 °F
Humidity 31%
Rainfall 0.00 in
Snow Depth Not available.
UV 2 out of 12
Pollen .30 out of 12
Air Quality Not available.
Flu Activity Not available.
METAR KSAW 022047Z 00000KT 10SM SKC M03/M18 A3029

More Conditions Fewer Conditions

10-Day Weather Forecast

Almanac

Astronomy

Mar. 02, 2015 Rise Set
Actual Time
Civil Twilight
Nautical Twilight
Astronomical Twilight
Moon
Length of Visible Light
Length of Day
Tomorrow will be .
, % of the Moon is Illuminated

Today's Extremes

State Highs State Lows

Community

WunderPhotos

Upload Photos

1,801,965 photos uploaded!

WunderBlogs® & News

Nearby

Air Quality

  Air Quality AQ Index Pollutant
Not available.

Snow Depth

Station Depth Elevation

Earthquake Activity

City Distance Mag. Time & Date
Minimum magnitude displayed is 2.5.

Coastal Water Temperatures

Place Temperature

Nearby Weather Stations

Winter Weather Advisory
Statement as of 3:58 PM EST on March 02, 2015

... Winter Weather Advisory in effect from 6 am to 6 PM CST
Tuesday...

The National Weather Service in Marquette has issued a Winter
Weather Advisory for snow... which is in effect from 6 am to 6 PM CST
Tuesday.

Hazardous weather...

* light snow will develop late tonight and will increase in
   intensity Tuesday morning. Expect the heaviest snow to fall
   between 7 am and 1 PM CST. The snow will quickly diminish during
   the mid and late afternoon hours.

* Plan on storm total snow accumulations of 3 to 5 inches by late
   Tuesday afternoon.

Impacts...

* roads will quickly become snow covered and slippery Tuesday
   morning.

Precautionary/preparedness actions...

* a Winter Weather Advisory for snow means that periods of snow
   will cause primarily travel difficulties.

* Prepare... plan... and stay informed. Visit www.Weather.Gov/MQT